sensor_id;sensor_type;location;lat;lon;timestamp;temperature;humidity
43665;DHT22;29263;48.172;11.484;2022-11-20T00:02:19;6.00;99.90
43665;DHT22;29263;48.172;11.484;2022-11-20T00:04:45;6.00;99.90
43665;DHT22;29263;48.172;11.484;2022-11-20T00:07:11;6.00;99.90
43665;DHT22;29263;48.172;11.484;2022-11-20T00:09:36;6.00;99.90
43665;DHT22;29263;48.172;11.484;2022-11-20T00:12:02;6.00;99.90
43665;DHT22;29263;48.172;11.484;2022-11-20T00:14:28;6.00;99.90
43665;DHT22;29263;48.172;11.484;2022-11-20T00:16:54;6.10;99.90
43665;DHT22;29263;48.172;11.484;2022-11-20T00:19:19;6.10;99.90
43665;DHT22;29263;48.172;11.484;2022-11-20T00:21:45;6.00;99.90
43665;DHT22;29263;48.172;11.484;2022-11-20T00:24:11;6.10;99.90
43665;DHT22;29263;48.172;11.484;2022-11-20T00:26:36;6.00;99.90
43665;DHT22;29263;48.172;11.484;2022-11-20T00:29:02;6.00;99.90
43665;DHT22;29263;48.172;11.484;2022-11-20T00:31:29;6.00;99.90
43665;DHT22;29263;48.172;11.484;2022-11-20T00:33:55;6.00;99.90
43665;DHT22;29263;48.172;11.484;2022-11-20T00:36:23;6.00;99.90
43665;DHT22;29263;48.172;11.484;2022-11-20T00:38:52;6.00;99.90
43665;DHT22;29263;48.172;11.484;2022-11-20T00:41:18;6.00;99.90
43665;DHT22;29263;48.172;11.484;2022-11-20T00:43:44;6.00;99.90
43665;DHT22;29263;48.172;11.484;2022-11-20T00:46:13;6.00;99.90
43665;DHT22;29263;48.172;11.484;2022-11-20T00:48:39;6.10;99.90
43665;DHT22;29263;48.172;11.484;2022-11-20T00:51:04;6.00;99.90
43665;DHT22;29263;48.172;11.484;2022-11-20T00:53:30;6.00;99.90
43665;DHT22;29263;48.172;11.484;2022-11-20T00:55:58;6.00;99.90
43665;DHT22;29263;48.172;11.484;2022-11-20T00:58:27;6.00;99.90
43665;DHT22;29263;48.172;11.484;2022-11-20T01:03:35;6.00;99.90
43665;DHT22;29263;48.172;11.484;2022-11-20T01:06:02;6.00;99.90
43665;DHT22;29263;48.172;11.484;2022-11-20T01:08:33;6.00;99.90
43665;DHT22;29263;48.172;11.484;2022-11-20T01:11:08;6.00;99.90
43665;DHT22;29263;48.172;11.484;2022-11-20T01:13:34;6.00;99.90
43665;DHT22;29263;48.172;11.484;2022-11-20T01:16:24;6.00;99.90
43665;DHT22;29263;48.172;11.484;2022-11-20T01:18:51;6.00;99.90
43665;DHT22;29263;48.172;11.484;2022-11-20T01:21:43;6.00;99.90
43665;DHT22;29263;48.172;11.484;2022-11-20T01:24:10;6.00;99.90
43665;DHT22;29263;48.172;11.484;2022-11-20T01:26:38;6.00;99.90
43665;DHT22;29263;48.172;11.484;2022-11-20T01:29:05;6.00;99.90
43665;DHT22;29263;48.172;11.484;2022-11-20T01:31:33;6.00;99.90
43665;DHT22;29263;48.172;11.484;2022-11-20T01:34:03;6.00;99.90
43665;DHT22;29263;48.172;11.484;2022-11-20T01:36:30;6.00;99.90
43665;DHT22;29263;48.172;11.484;2022-11-20T01:38:59;6.10;99.90
43665;DHT22;29263;48.172;11.484;2022-11-20T01:41:26;6.10;99.90
43665;DHT22;29263;48.172;11.484;2022-11-20T01:44:14;6.00;99.90
43665;DHT22;29263;48.172;11.484;2022-11-20T01:46:48;6.10;99.90
43665;DHT22;29263;48.172;11.484;2022-11-20T01:49:36;6.10;99.90
43665;DHT22;29263;48.172;11.484;2022-11-20T01:55:15;6.10;99.90
43665;DHT22;29263;48.172;11.484;2022-11-20T01:57:44;6.10;99.90
43665;DHT22;29263;48.172;11.484;2022-11-20T02:00:16;6.10;99.90
43665;DHT22;29263;48.172;11.484;2022-11-20T02:02:45;6.10;99.90
43665;DHT22;29263;48.172;11.484;2022-11-20T02:05:22;6.10;99.90
43665;DHT22;29263;48.172;11.484;2022-11-20T02:07:52;6.00;99.90
43665;DHT22;29263;48.172;11.484;2022-11-20T02:10:20;6.00;99.90
43665;DHT22;29263;48.172;11.484;2022-11-20T02:12:52;6.00;99.90
43665;DHT22;29263;48.172;11.484;2022-11-20T02:15:36;6.00;99.90
43665;DHT22;29263;48.172;11.484;2022-11-20T02:18:05;6.00;99.90
43665;DHT22;29263;48.172;11.484;2022-11-20T02:20:31;6.10;99.90
43665;DHT22;29263;48.172;11.484;2022-11-20T02:23:14;6.10;99.90
43665;DHT22;29263;48.172;11.484;2022-11-20T02:25:42;6.10;99.90
43665;DHT22;29263;48.172;11.484;2022-11-20T02:28:12;6.10;99.90
43665;DHT22;29263;48.172;11.484;2022-11-20T02:30:43;6.10;99.90
43665;DHT22;29263;48.172;11.484;2022-11-20T02:33:09;6.20;99.90
43665;DHT22;29263;48.172;11.484;2022-11-20T02:38:02;6.30;99.90
43665;DHT22;29263;48.172;11.484;2022-11-20T02:40:28;6.30;99.90
43665;DHT22;29263;48.172;11.484;2022-11-20T02:42:55;6.30;99.90
43665;DHT22;29263;48.172;11.484;2022-11-20T02:45:22;6.30;99.90
43665;DHT22;29263;48.172;11.484;2022-11-20T02:47:48;6.20;99.90
43665;DHT22;29263;48.172;11.484;2022-11-20T02:50:17;6.10;99.90
43665;DHT22;29263;48.172;11.484;2022-11-20T02:52:43;6.20;99.90
43665;DHT22;29263;48.172;11.484;2022-11-20T02:55:12;6.20;99.90
43665;DHT22;29263;48.172;11.484;2022-11-20T02:57:38;6.20;99.90
43665;DHT22;29263;48.172;11.484;2022-11-20T03:00:07;6.10;99.90
43665;DHT22;29263;48.172;11.484;2022-11-20T03:02:33;6.10;99.90
43665;DHT22;29263;48.172;11.484;2022-11-20T03:04:59;6.10;99.90
43665;DHT22;29263;48.172;11.484;2022-11-20T03:07:25;6.10;99.90
43665;DHT22;29263;48.172;11.484;2022-11-20T03:09:50;6.10;99.90
43665;DHT22;29263;48.172;11.484;2022-11-20T03:12:16;6.10;99.90
43665;DHT22;29263;48.172;11.484;2022-11-20T03:14:42;6.10;99.90
43665;DHT22;29263;48.172;11.484;2022-11-20T03:17:08;6.10;99.90
43665;DHT22;29263;48.172;11.484;2022-11-20T03:19:33;6.10;99.90
43665;DHT22;29263;48.172;11.484;2022-11-20T03:22:00;6.10;99.90
43665;DHT22;29263;48.172;11.484;2022-11-20T03:24:26;6.10;99.90
43665;DHT22;29263;48.172;11.484;2022-11-20T03:26:53;6.10;99.90
43665;DHT22;29263;48.172;11.484;2022-11-20T03:29:18;6.10;99.90
43665;DHT22;29263;48.172;11.484;2022-11-20T03:31:46;6.10;99.90
43665;DHT22;29263;48.172;11.484;2022-11-20T03:34:12;6.10;99.90
43665;DHT22;29263;48.172;11.484;2022-11-20T03:36:39;6.10;99.90
43665;DHT22;29263;48.172;11.484;2022-11-20T03:39:05;6.10;99.90
43665;DHT22;29263;48.172;11.484;2022-11-20T03:41:34;6.10;99.90
43665;DHT22;29263;48.172;11.484;2022-11-20T03:44:02;6.10;99.90
43665;DHT22;29263;48.172;11.484;2022-11-20T03:46:28;6.10;99.90
43665;DHT22;29263;48.172;11.484;2022-11-20T03:48:54;6.10;99.90
43665;DHT22;29263;48.172;11.484;2022-11-20T03:51:25;6.10;99.90
43665;DHT22;29263;48.172;11.484;2022-11-20T03:53:54;6.10;99.90
43665;DHT22;29263;48.172;11.484;2022-11-20T03:56:23;6.10;99.90
43665;DHT22;29263;48.172;11.484;2022-11-20T03:58:49;6.10;99.90
43665;DHT22;29263;48.172;11.484;2022-11-20T04:01:19;6.10;99.90
43665;DHT22;29263;48.172;11.484;2022-11-20T04:03:46;6.00;99.90
43665;DHT22;29263;48.172;11.484;2022-11-20T04:06:23;6.00;99.90
43665;DHT22;29263;48.172;11.484;2022-11-20T04:08:50;6.00;99.90
43665;DHT22;29263;48.172;11.484;2022-11-20T04:11:18;6.00;99.90
43665;DHT22;29263;48.172;11.484;2022-11-20T04:14:04;6.00;99.90
43665;DHT22;29263;48.172;11.484;2022-11-20T04:16:34;6.00;99.90
43665;DHT22;29263;48.172;11.484;2022-11-20T04:19:01;6.00;99.90
43665;DHT22;29263;48.172;11.484;2022-11-20T04:21:27;6.10;99.90
43665;DHT22;29263;48.172;11.484;2022-11-20T04:23:54;6.00;99.90
43665;DHT22;29263;48.172;11.484;2022-11-20T04:26:21;6.00;99.90
43665;DHT22;29263;48.172;11.484;2022-11-20T04:28:47;6.00;99.90
43665;DHT22;29263;48.172;11.484;2022-11-20T04:31:14;6.00;99.90
43665;DHT22;29263;48.172;11.484;2022-11-20T04:33:41;6.00;99.90
43665;DHT22;29263;48.172;11.484;2022-11-20T04:36:11;6.00;99.90
43665;DHT22;29263;48.172;11.484;2022-11-20T04:38:36;6.00;99.90
43665;DHT22;29263;48.172;11.484;2022-11-20T04:41:05;6.00;99.90
43665;DHT22;29263;48.172;11.484;2022-11-20T04:43:32;6.00;99.90
43665;DHT22;29263;48.172;11.484;2022-11-20T04:45:59;6.00;99.90
43665;DHT22;29263;48.172;11.484;2022-11-20T04:48:25;6.00;99.90
43665;DHT22;29263;48.172;11.484;2022-11-20T04:50:52;6.00;99.90
43665;DHT22;29263;48.172;11.484;2022-11-20T04:53:18;6.00;99.90
43665;DHT22;29263;48.172;11.484;2022-11-20T04:55:44;6.00;99.90
43665;DHT22;29263;48.172;11.484;2022-11-20T04:58:10;6.00;99.90
43665;DHT22;29263;48.172;11.484;2022-11-20T05:00:36;6.00;99.90
43665;DHT22;29263;48.172;11.484;2022-11-20T05:03:02;5.90;99.90
43665;DHT22;29263;48.172;11.484;2022-11-20T05:05:27;5.90;99.90
43665;DHT22;29263;48.172;11.484;2022-11-20T05:07:55;5.90;99.90
43665;DHT22;29263;48.172;11.484;2022-11-20T05:10:21;5.90;99.90
43665;DHT22;29263;48.172;11.484;2022-11-20T05:12:46;5.90;99.90
43665;DHT22;29263;48.172;11.484;2022-11-20T05:15:12;5.90;99.90
43665;DHT22;29263;48.172;11.484;2022-11-20T05:17:38;5.90;99.90
43665;DHT22;29263;48.172;11.484;2022-11-20T05:20:03;6.00;99.90
43665;DHT22;29263;48.172;11.484;2022-11-20T05:22:29;6.00;99.90
43665;DHT22;29263;48.172;11.484;2022-11-20T05:24:55;6.00;99.90
43665;DHT22;29263;48.172;11.484;2022-11-20T05:27:20;5.90;99.90
43665;DHT22;29263;48.172;11.484;2022-11-20T05:29:46;5.90;99.90
43665;DHT22;29263;48.172;11.484;2022-11-20T05:32:11;5.90;99.90
43665;DHT22;29263;48.172;11.484;2022-11-20T05:34:37;5.90;99.90
43665;DHT22;29263;48.172;11.484;2022-11-20T05:37:02;5.90;99.90
43665;DHT22;29263;48.172;11.484;2022-11-20T05:39:28;5.90;99.90
43665;DHT22;29263;48.172;11.484;2022-11-20T05:41:54;5.90;99.90
43665;DHT22;29263;48.172;11.484;2022-11-20T05:44:39;5.90;99.90
43665;DHT22;29263;48.172;11.484;2022-11-20T05:47:05;5.90;99.90
43665;DHT22;29263;48.172;11.484;2022-11-20T05:49:31;6.00;99.90
43665;DHT22;29263;48.172;11.484;2022-11-20T05:51:57;5.90;99.90
43665;DHT22;29263;48.172;11.484;2022-11-20T05:54:23;5.90;99.90
43665;DHT22;29263;48.172;11.484;2022-11-20T05:56:48;6.00;99.90
43665;DHT22;29263;48.172;11.484;2022-11-20T05:59:14;6.10;99.90
43665;DHT22;29263;48.172;11.484;2022-11-20T06:01:40;5.90;99.90
43665;DHT22;29263;48.172;11.484;2022-11-20T06:04:05;5.90;99.90
43665;DHT22;29263;48.172;11.484;2022-11-20T06:06:31;5.70;99.90
43665;DHT22;29263;48.172;11.484;2022-11-20T06:08:56;5.90;99.90
43665;DHT22;29263;48.172;11.484;2022-11-20T06:11:24;5.90;99.90
43665;DHT22;29263;48.172;11.484;2022-11-20T06:13:51;6.10;99.90
43665;DHT22;29263;48.172;11.484;2022-11-20T06:16:18;5.80;99.90
43665;DHT22;29263;48.172;11.484;2022-11-20T06:18:45;5.70;99.90
43665;DHT22;29263;48.172;11.484;2022-11-20T06:21:16;5.60;99.90
43665;DHT22;29263;48.172;11.484;2022-11-20T06:23:42;5.80;99.90
43665;DHT22;29263;48.172;11.484;2022-11-20T06:26:10;5.50;99.90
43665;DHT22;29263;48.172;11.484;2022-11-20T06:28:36;5.50;99.90
43665;DHT22;29263;48.172;11.484;2022-11-20T06:31:03;5.50;99.90
43665;DHT22;29263;48.172;11.484;2022-11-20T06:33:28;5.50;99.90
43665;DHT22;29263;48.172;11.484;2022-11-20T07:15:12;5.80;99.90
43665;DHT22;29263;48.172;11.484;2022-11-20T07:17:37;5.80;99.90
43665;DHT22;29263;48.172;11.484;2022-11-20T07:20:03;5.80;99.90
43665;DHT22;29263;48.172;11.484;2022-11-20T07:22:29;5.90;99.90
43665;DHT22;29263;48.172;11.484;2022-11-20T07:24:55;6.10;99.90
43665;DHT22;29263;48.172;11.484;2022-11-20T07:27:20;5.90;99.90
43665;DHT22;29263;48.172;11.484;2022-11-20T07:34:57;5.90;99.90
43665;DHT22;29263;48.172;11.484;2022-11-20T07:39:58;6.00;99.90
43665;DHT22;29263;48.172;11.484;2022-11-20T07:42:23;6.00;99.90
43665;DHT22;29263;48.172;11.484;2022-11-20T07:44:49;6.00;99.90
43665;DHT22;29263;48.172;11.484;2022-11-20T07:47:14;6.00;99.90
43665;DHT22;29263;48.172;11.484;2022-11-20T07:57:26;6.10;99.90
43665;DHT22;29263;48.172;11.484;2022-11-20T07:59:52;6.10;99.90
43665;DHT22;29263;48.172;11.484;2022-11-20T08:02:17;6.20;99.90
43665;DHT22;29263;48.172;11.484;2022-11-20T08:04:43;6.30;99.90
43665;DHT22;29263;48.172;11.484;2022-11-20T08:07:08;6.30;99.90
43665;DHT22;29263;48.172;11.484;2022-11-20T08:09:34;6.20;99.90
43665;DHT22;29263;48.172;11.484;2022-11-20T08:12:00;6.30;99.90
43665;DHT22;29263;48.172;11.484;2022-11-20T08:14:44;6.30;99.90
43665;DHT22;29263;48.172;11.484;2022-11-20T08:17:09;6.30;99.90
43665;DHT22;29263;48.172;11.484;2022-11-20T08:19:35;6.30;99.90
43665;DHT22;29263;48.172;11.484;2022-11-20T08:22:01;6.30;99.90
43665;DHT22;29263;48.172;11.484;2022-11-20T08:24:26;6.30;99.90
43665;DHT22;29263;48.172;11.484;2022-11-20T08:26:52;6.30;99.90
43665;DHT22;29263;48.172;11.484;2022-11-20T08:29:18;6.40;99.90
43665;DHT22;29263;48.172;11.484;2022-11-20T08:31:43;6.40;99.90
43665;DHT22;29263;48.172;11.484;2022-11-20T08:34:09;6.40;99.90
43665;DHT22;29263;48.172;11.484;2022-11-20T08:36:35;6.40;99.90
43665;DHT22;29263;48.172;11.484;2022-11-20T08:39:01;6.50;99.90
43665;DHT22;29263;48.172;11.484;2022-11-20T08:41:27;6.50;99.90
43665;DHT22;29263;48.172;11.484;2022-11-20T08:43:56;6.60;99.90
43665;DHT22;29263;48.172;11.484;2022-11-20T08:46:24;6.60;99.90
43665;DHT22;29263;48.172;11.484;2022-11-20T08:48:50;6.70;99.90
43665;DHT22;29263;48.172;11.484;2022-11-20T08:51:16;6.70;99.90
43665;DHT22;29263;48.172;11.484;2022-11-20T08:53:42;6.70;99.90
43665;DHT22;29263;48.172;11.484;2022-11-20T08:56:08;6.80;99.90
43665;DHT22;29263;48.172;11.484;2022-11-20T08:58:36;6.80;99.90
43665;DHT22;29263;48.172;11.484;2022-11-20T09:01:02;6.80;99.90
43665;DHT22;29263;48.172;11.484;2022-11-20T09:03:28;6.80;99.90
43665;DHT22;29263;48.172;11.484;2022-11-20T09:06:01;6.80;99.90
43665;DHT22;29263;48.172;11.484;2022-11-20T09:08:28;6.80;99.90
43665;DHT22;29263;48.172;11.484;2022-11-20T09:10:55;6.80;99.90
43665;DHT22;29263;48.172;11.484;2022-11-20T09:13:22;6.80;99.90
43665;DHT22;29263;48.172;11.484;2022-11-20T09:15:55;6.90;99.90
43665;DHT22;29263;48.172;11.484;2022-11-20T09:18:22;7.00;99.90
43665;DHT22;29263;48.172;11.484;2022-11-20T09:20:47;7.00;99.90
43665;DHT22;29263;48.172;11.484;2022-11-20T09:23:14;7.10;99.90
43665;DHT22;29263;48.172;11.484;2022-11-20T09:25:40;7.00;99.90
43665;DHT22;29263;48.172;11.484;2022-11-20T09:28:05;7.10;99.90
43665;DHT22;29263;48.172;11.484;2022-11-20T09:30:31;7.10;99.90
43665;DHT22;29263;48.172;11.484;2022-11-20T09:32:56;7.10;99.90
43665;DHT22;29263;48.172;11.484;2022-11-20T09:35:22;7.10;99.90
43665;DHT22;29263;48.172;11.484;2022-11-20T09:37:48;7.10;99.90
43665;DHT22;29263;48.172;11.484;2022-11-20T09:40:24;7.20;99.90
43665;DHT22;29263;48.172;11.484;2022-11-20T09:54:37;7.60;99.90
43665;DHT22;29263;48.172;11.484;2022-11-20T09:57:03;7.60;99.90
43665;DHT22;29263;48.172;11.484;2022-11-20T09:59:45;7.70;99.90
43665;DHT22;29263;48.172;11.484;2022-11-20T10:02:37;7.70;99.90
43665;DHT22;29263;48.172;11.484;2022-11-20T10:08:07;7.80;99.90
43665;DHT22;29263;48.172;11.484;2022-11-20T10:10:36;7.90;99.90
43665;DHT22;29263;48.172;11.484;2022-11-20T10:30:20;8.10;99.90
43665;DHT22;29263;48.172;11.484;2022-11-20T10:32:50;8.10;99.90
43665;DHT22;29263;48.172;11.484;2022-11-20T10:35:31;8.10;99.90
43665;DHT22;29263;48.172;11.484;2022-11-20T10:38:13;8.20;99.90
43665;DHT22;29263;48.172;11.484;2022-11-20T10:40:48;8.10;99.90
43665;DHT22;29263;48.172;11.484;2022-11-20T10:43:32;8.20;99.90
43665;DHT22;29263;48.172;11.484;2022-11-20T10:46:17;8.20;99.90
43665;DHT22;29263;48.172;11.484;2022-11-20T10:48:44;8.20;99.90
43665;DHT22;29263;48.172;11.484;2022-11-20T10:56:51;8.20;99.90
43665;DHT22;29263;48.172;11.484;2022-11-20T11:01:48;8.10;99.90
43665;DHT22;29263;48.172;11.484;2022-11-20T11:04:30;8.10;99.90
43665;DHT22;29263;48.172;11.484;2022-11-20T11:09:46;8.20;99.90
43665;DHT22;29263;48.172;11.484;2022-11-20T11:12:13;8.20;99.90
43665;DHT22;29263;48.172;11.484;2022-11-20T11:14:43;8.20;99.90
43665;DHT22;29263;48.172;11.484;2022-11-20T11:17:23;8.20;99.90
43665;DHT22;29263;48.172;11.484;2022-11-20T11:22:55;8.20;99.90
43665;DHT22;29263;48.172;11.484;2022-11-20T11:25:32;8.20;99.90
43665;DHT22;29263;48.172;11.484;2022-11-20T11:28:24;8.30;99.90
43665;DHT22;29263;48.172;11.484;2022-11-20T11:30:52;8.40;99.90
43665;DHT22;29263;48.172;11.484;2022-11-20T11:33:23;8.50;99.90
43665;DHT22;29263;48.172;11.484;2022-11-20T11:35:59;8.60;99.90
43665;DHT22;29263;48.172;11.484;2022-11-20T11:40:56;8.50;99.90
43665;DHT22;29263;48.172;11.484;2022-11-20T11:43:25;8.50;99.90
43665;DHT22;29263;48.172;11.484;2022-11-20T11:51:22;8.30;99.90
43665;DHT22;29263;48.172;11.484;2022-11-20T11:53:47;8.20;99.90
43665;DHT22;29263;48.172;11.484;2022-11-20T11:56:14;8.10;99.90
43665;DHT22;29263;48.172;11.484;2022-11-20T12:04:04;8.10;99.90
43665;DHT22;29263;48.172;11.484;2022-11-20T12:06:31;8.00;99.90
43665;DHT22;29263;48.172;11.484;2022-11-20T12:09:07;7.70;99.90
43665;DHT22;29263;48.172;11.484;2022-11-20T12:14:32;7.40;99.90
43665;DHT22;29263;48.172;11.484;2022-11-20T12:17:03;7.40;99.90
43665;DHT22;29263;48.172;11.484;2022-11-20T12:19:33;7.40;99.90
43665;DHT22;29263;48.172;11.484;2022-11-20T12:22:31;7.30;99.90
43665;DHT22;29263;48.172;11.484;2022-11-20T12:25:14;7.40;99.90
43665;DHT22;29263;48.172;11.484;2022-11-20T12:30:21;7.40;99.90
43665;DHT22;29263;48.172;11.484;2022-11-20T12:35:29;7.50;99.90
43665;DHT22;29263;48.172;11.484;2022-11-20T12:41:11;7.60;99.90
43665;DHT22;29263;48.172;11.484;2022-11-20T12:44:25;7.60;99.90
43665;DHT22;29263;48.172;11.484;2022-11-20T12:53:06;7.60;99.90
43665;DHT22;29263;48.172;11.484;2022-11-20T13:04:09;7.50;99.90
43665;DHT22;29263;48.172;11.484;2022-11-20T13:06:40;7.40;99.90
43665;DHT22;29263;48.172;11.484;2022-11-20T13:17:04;7.30;99.90
43665;DHT22;29263;48.172;11.484;2022-11-20T13:19:31;7.30;99.90
43665;DHT22;29263;48.172;11.484;2022-11-20T13:21:57;7.30;99.90
43665;DHT22;29263;48.172;11.484;2022-11-20T13:24:26;7.30;99.90
43665;DHT22;29263;48.172;11.484;2022-11-20T13:29:30;7.20;99.90
43665;DHT22;29263;48.172;11.484;2022-11-20T13:32:17;7.20;99.90
43665;DHT22;29263;48.172;11.484;2022-11-20T13:37:33;7.10;99.90
43665;DHT22;29263;48.172;11.484;2022-11-20T13:42:46;7.10;99.90
43665;DHT22;29263;48.172;11.484;2022-11-20T13:45:42;7.10;99.90
43665;DHT22;29263;48.172;11.484;2022-11-20T13:48:22;7.10;99.90
43665;DHT22;29263;48.172;11.484;2022-11-20T13:56:17;7.10;99.90
43665;DHT22;29263;48.172;11.484;2022-11-20T14:01:21;7.10;99.90
43665;DHT22;29263;48.172;11.484;2022-11-20T14:03:47;7.20;99.90
43665;DHT22;29263;48.172;11.484;2022-11-20T14:06:31;7.10;99.90
43665;DHT22;29263;48.172;11.484;2022-11-20T14:08:58;7.10;99.90
43665;DHT22;29263;48.172;11.484;2022-11-20T14:11:26;7.20;99.90
43665;DHT22;29263;48.172;11.484;2022-11-20T14:14:02;7.10;99.90
43665;DHT22;29263;48.172;11.484;2022-11-20T14:16:32;7.10;99.90
43665;DHT22;29263;48.172;11.484;2022-11-20T14:21:48;7.10;99.90
43665;DHT22;29263;48.172;11.484;2022-11-20T14:24:19;7.10;99.90
43665;DHT22;29263;48.172;11.484;2022-11-20T14:26:46;7.20;99.90
43665;DHT22;29263;48.172;11.484;2022-11-20T14:29:29;7.10;99.90
43665;DHT22;29263;48.172;11.484;2022-11-20T14:31:56;7.10;99.90
43665;DHT22;29263;48.172;11.484;2022-11-20T14:34:24;7.20;99.90
43665;DHT22;29263;48.172;11.484;2022-11-20T14:36:57;7.20;99.90
43665;DHT22;29263;48.172;11.484;2022-11-20T14:39:47;7.20;99.90
43665;DHT22;29263;48.172;11.484;2022-11-20T14:42:18;7.20;99.90
43665;DHT22;29263;48.172;11.484;2022-11-20T14:44:44;7.20;99.90
43665;DHT22;29263;48.172;11.484;2022-11-20T14:47:17;7.10;99.90
43665;DHT22;29263;48.172;11.484;2022-11-20T14:49:44;7.10;99.90
43665;DHT22;29263;48.172;11.484;2022-11-20T14:54:54;7.10;99.90
43665;DHT22;29263;48.172;11.484;2022-11-20T14:57:30;7.10;99.90
43665;DHT22;29263;48.172;11.484;2022-11-20T15:02:31;7.10;99.90
43665;DHT22;29263;48.172;11.484;2022-11-20T15:04:59;7.00;99.90
43665;DHT22;29263;48.172;11.484;2022-11-20T15:07:27;7.00;99.90
43665;DHT22;29263;48.172;11.484;2022-11-20T15:10:13;7.00;99.90
43665;DHT22;29263;48.172;11.484;2022-11-20T15:15:36;6.90;99.90
43665;DHT22;29263;48.172;11.484;2022-11-20T15:18:04;6.90;99.90
43665;DHT22;29263;48.172;11.484;2022-11-20T15:20:31;7.00;99.90
43665;DHT22;29263;48.172;11.484;2022-11-20T15:22:57;6.90;99.90
43665;DHT22;29263;48.172;11.484;2022-11-20T15:25:23;6.90;99.90
43665;DHT22;29263;48.172;11.484;2022-11-20T15:27:53;6.90;99.90
43665;DHT22;29263;48.172;11.484;2022-11-20T15:30:21;6.90;99.90
43665;DHT22;29263;48.172;11.484;2022-11-20T15:32:47;6.90;99.90
43665;DHT22;29263;48.172;11.484;2022-11-20T15:35:14;6.80;99.90
43665;DHT22;29263;48.172;11.484;2022-11-20T15:37:40;6.80;99.90
43665;DHT22;29263;48.172;11.484;2022-11-20T15:40:09;6.80;99.90
43665;DHT22;29263;48.172;11.484;2022-11-20T15:42:35;6.80;99.90
43665;DHT22;29263;48.172;11.484;2022-11-20T15:45:01;6.80;99.90
43665;DHT22;29263;48.172;11.484;2022-11-20T15:47:32;6.80;99.90
43665;DHT22;29263;48.172;11.484;2022-11-20T15:49:58;6.80;99.90
43665;DHT22;29263;48.172;11.484;2022-11-20T15:52:24;6.80;99.90
43665;DHT22;29263;48.172;11.484;2022-11-20T15:54:49;6.70;99.90
43665;DHT22;29263;48.172;11.484;2022-11-20T15:57:15;6.70;99.90
43665;DHT22;29263;48.172;11.484;2022-11-20T15:59:41;6.70;99.90
43665;DHT22;29263;48.172;11.484;2022-11-20T16:02:14;6.70;99.90
43665;DHT22;29263;48.172;11.484;2022-11-20T16:04:41;6.70;99.90
43665;DHT22;29263;48.172;11.484;2022-11-20T16:07:07;6.70;99.90
43665;DHT22;29263;48.172;11.484;2022-11-20T16:09:32;6.60;99.90
43665;DHT22;29263;48.172;11.484;2022-11-20T16:12:01;6.50;99.90
43665;DHT22;29263;48.172;11.484;2022-11-20T16:14:27;6.50;99.90
43665;DHT22;29263;48.172;11.484;2022-11-20T16:17:12;6.40;99.90
43665;DHT22;29263;48.172;11.484;2022-11-20T16:19:37;6.40;99.90
43665;DHT22;29263;48.172;11.484;2022-11-20T16:22:03;6.30;99.90
43665;DHT22;29263;48.172;11.484;2022-11-20T16:24:29;6.20;99.90
43665;DHT22;29263;48.172;11.484;2022-11-20T16:26:56;6.10;99.90
43665;DHT22;29263;48.172;11.484;2022-11-20T16:29:22;6.10;99.90
43665;DHT22;29263;48.172;11.484;2022-11-20T16:31:47;6.00;99.90
43665;DHT22;29263;48.172;11.484;2022-11-20T16:34:15;5.90;99.90
43665;DHT22;29263;48.172;11.484;2022-11-20T16:36:42;5.80;99.90
43665;DHT22;29263;48.172;11.484;2022-11-20T16:39:09;5.80;99.90
43665;DHT22;29263;48.172;11.484;2022-11-20T16:41:35;5.70;99.90
43665;DHT22;29263;48.172;11.484;2022-11-20T16:44:05;5.60;99.90
43665;DHT22;29263;48.172;11.484;2022-11-20T16:46:32;5.60;99.90
43665;DHT22;29263;48.172;11.484;2022-11-20T16:49:00;5.40;99.90
43665;DHT22;29263;48.172;11.484;2022-11-20T16:51:27;5.40;99.90
43665;DHT22;29263;48.172;11.484;2022-11-20T16:53:53;5.40;99.90
43665;DHT22;29263;48.172;11.484;2022-11-20T16:56:24;5.30;99.90
43665;DHT22;29263;48.172;11.484;2022-11-20T16:58:54;5.20;99.90
43665;DHT22;29263;48.172;11.484;2022-11-20T17:01:22;5.10;99.90
43665;DHT22;29263;48.172;11.484;2022-11-20T17:06:30;5.00;99.90
43665;DHT22;29263;48.172;11.484;2022-11-20T17:08:57;4.90;99.90
43665;DHT22;29263;48.172;11.484;2022-11-20T17:11:23;4.90;99.90
43665;DHT22;29263;48.172;11.484;2022-11-20T17:13:49;4.80;99.90
43665;DHT22;29263;48.172;11.484;2022-11-20T17:16:18;4.70;99.90
43665;DHT22;29263;48.172;11.484;2022-11-20T17:18:44;4.60;99.90
43665;DHT22;29263;48.172;11.484;2022-11-20T17:21:11;4.60;99.90
43665;DHT22;29263;48.172;11.484;2022-11-20T17:23:41;4.50;99.90
43665;DHT22;29263;48.172;11.484;2022-11-20T17:26:09;4.50;99.90
43665;DHT22;29263;48.172;11.484;2022-11-20T17:28:36;4.50;99.90
43665;DHT22;29263;48.172;11.484;2022-11-20T17:31:07;4.50;99.90
43665;DHT22;29263;48.172;11.484;2022-11-20T17:33:35;4.50;99.90
43665;DHT22;29263;48.172;11.484;2022-11-20T17:36:01;4.40;99.90
43665;DHT22;29263;48.172;11.484;2022-11-20T17:38:27;4.40;99.90
43665;DHT22;29263;48.172;11.484;2022-11-20T17:40:52;4.40;99.90
43665;DHT22;29263;48.172;11.484;2022-11-20T17:43:18;4.30;99.90
43665;DHT22;29263;48.172;11.484;2022-11-20T17:45:44;4.30;99.90
43665;DHT22;29263;48.172;11.484;2022-11-20T17:48:11;4.20;99.90
43665;DHT22;29263;48.172;11.484;2022-11-20T17:50:37;4.20;99.90
43665;DHT22;29263;48.172;11.484;2022-11-20T17:53:02;4.10;99.90
43665;DHT22;29263;48.172;11.484;2022-11-20T17:55:28;4.10;99.90
43665;DHT22;29263;48.172;11.484;2022-11-20T17:58:13;4.10;99.90
43665;DHT22;29263;48.172;11.484;2022-11-20T18:00:39;4.00;99.90
43665;DHT22;29263;48.172;11.484;2022-11-20T18:03:05;4.00;99.90
43665;DHT22;29263;48.172;11.484;2022-11-20T18:05:30;3.90;99.90
43665;DHT22;29263;48.172;11.484;2022-11-20T18:07:56;3.80;99.90
43665;DHT22;29263;48.172;11.484;2022-11-20T18:10:21;3.80;99.90
43665;DHT22;29263;48.172;11.484;2022-11-20T18:12:47;3.90;99.90
43665;DHT22;29263;48.172;11.484;2022-11-20T18:15:13;3.90;99.90
43665;DHT22;29263;48.172;11.484;2022-11-20T18:17:38;3.90;99.90
43665;DHT22;29263;48.172;11.484;2022-11-20T18:20:04;3.90;99.90
43665;DHT22;29263;48.172;11.484;2022-11-20T18:22:30;3.90;99.90
43665;DHT22;29263;48.172;11.484;2022-11-20T18:24:56;3.90;99.90
43665;DHT22;29263;48.172;11.484;2022-11-20T18:27:21;3.90;99.90
43665;DHT22;29263;48.172;11.484;2022-11-20T18:29:48;3.90;99.90
43665;DHT22;29263;48.172;11.484;2022-11-20T18:32:16;3.90;99.90
43665;DHT22;29263;48.172;11.484;2022-11-20T18:34:42;3.90;99.90
43665;DHT22;29263;48.172;11.484;2022-11-20T18:37:08;3.90;99.90
43665;DHT22;29263;48.172;11.484;2022-11-20T18:39:34;3.80;99.90
43665;DHT22;29263;48.172;11.484;2022-11-20T18:42:00;3.70;99.90
43665;DHT22;29263;48.172;11.484;2022-11-20T18:44:44;3.70;99.90
43665;DHT22;29263;48.172;11.484;2022-11-20T18:47:36;3.70;99.90